createdAt,value
2023-01-29T00:01:18.929Z,70.02
2023-01-29T00:03:45.491Z,69.52
2023-01-29T00:06:12.774Z,69.25
2023-01-29T00:08:39.611Z,68.68
2023-01-29T00:11:07.108Z,68.89
2023-01-29T00:13:34.564Z,69.47
2023-01-29T00:16:01.574Z,69.65
2023-01-29T00:18:29.179Z,69.82
2023-01-29T00:20:55.721Z,70.55
2023-01-29T00:23:22.633Z,69.82
2023-01-29T00:25:49.052Z,69.78
2023-01-29T00:28:15.918Z,69.09
2023-01-29T00:30:43.183Z,69.98
2023-01-29T00:33:11.796Z,69.14
2023-01-29T00:35:39.399Z,69.04
2023-01-29T00:38:05.818Z,68.75
2023-01-29T00:40:52.323Z,69.11
2023-01-29T00:43:37.474Z,69.33
2023-01-29T00:46:06.455Z,69.65
2023-01-29T00:48:34.104Z,69.85
2023-01-29T00:51:00.933Z,69.80
2023-01-29T00:53:27.372Z,69.13
2023-01-29T00:55:53.796Z,67.90
2023-01-29T00:58:22.464Z,67.86
2023-01-29T01:00:49.385Z,67.83
2023-01-29T01:03:16.230Z,67.67
2023-01-29T01:05:42.997Z,67.33
2023-01-29T01:08:28.708Z,69.17
2023-01-29T01:11:02.997Z,68.43
2023-01-29T01:13:31.092Z,68.50
2023-01-29T01:15:57.566Z,68.68
2023-01-29T01:18:24.038Z,69.53
2023-01-29T01:20:51.634Z,68.69
2023-01-29T01:23:19.384Z,68.33
2023-01-29T01:25:46.505Z,68.23
2023-01-29T01:28:12.987Z,68.06
2023-01-29T01:30:39.430Z,68.16
2023-01-29T01:33:05.914Z,68.42
2023-01-29T01:35:32.485Z,67.77
2023-01-29T01:37:58.921Z,67.16
2023-01-29T01:40:26.368Z,67.08
2023-01-29T01:43:02.178Z,67.64
2023-01-29T01:45:35.767Z,67.98
2023-01-29T01:48:05.517Z,68.40
2023-01-29T01:50:42.732Z,68.41
2023-01-29T01:53:11.657Z,68.07
2023-01-29T01:55:41.792Z,67.39
2023-01-29T01:58:15.711Z,68.43
2023-01-29T02:00:42.595Z,67.43
2023-01-29T02:03:29.143Z,67.84
2023-01-29T02:06:17.299Z,67.12
2023-01-29T02:09:14.749Z,66.88
2023-01-29T02:11:41.189Z,67.05
2023-01-29T02:14:08.085Z,67.55
2023-01-29T02:16:35.615Z,65.66
2023-01-29T02:19:05.283Z,65.78
2023-01-29T02:21:37.707Z,66.33
2023-01-29T02:24:04.202Z,66.33
2023-01-29T02:26:39.904Z,66.23
2023-01-29T02:29:23.153Z,66.87
2023-01-29T02:31:54.206Z,66.81
2023-01-29T02:34:20.748Z,66.22
2023-01-29T02:36:53.617Z,66.53
2023-01-29T02:39:36.450Z,66.83
2023-01-29T02:42:12.252Z,66.83
2023-01-29T02:44:42.192Z,66.39
2023-01-29T02:47:27.174Z,65.95
2023-01-29T02:50:04.199Z,66.47
2023-01-29T02:52:49.631Z,66.05
2023-01-29T02:55:29.277Z,65.66
2023-01-29T02:58:01.019Z,66.07
2023-01-29T03:00:30.060Z,65.68
2023-01-29T03:03:03.801Z,67.95
2023-01-29T03:05:44.780Z,67.40
2023-01-29T03:08:16.003Z,66.84
2023-01-29T03:11:02.750Z,66.43
2023-01-29T03:13:34.532Z,66.01
2023-01-29T03:16:19.773Z,67.18
2023-01-29T03:18:53.854Z,66.22
2023-01-29T03:21:46.553Z,66.34
2023-01-29T03:24:33.771Z,65.97
2023-01-29T03:27:21.255Z,65.63
2023-01-29T03:30:09.007Z,65.51
2023-01-29T03:32:48.805Z,65.62
2023-01-29T03:35:21.026Z,65.45
2023-01-29T03:37:48.862Z,65.41
2023-01-29T03:40:15.823Z,65.45
2023-01-29T03:43:02.070Z,65.45
2023-01-29T03:45:43.169Z,65.60
2023-01-29T03:48:10.433Z,65.03
2023-01-29T03:50:42.232Z,65.68
2023-01-29T03:53:17.008Z,65.39
2023-01-29T03:55:49.444Z,65.58
2023-01-29T03:58:31.052Z,65.59
2023-01-29T04:01:21.269Z,66.02
2023-01-29T04:03:50.197Z,65.22
2023-01-29T04:06:18.608Z,65.11
2023-01-29T04:09:02.319Z,64.83
2023-01-29T04:11:29.778Z,64.99
2023-01-29T04:13:57.214Z,65.17
2023-01-29T04:16:38.418Z,65.63
2023-01-29T04:19:43.780Z,66.36
2023-01-29T04:22:14.028Z,66.28
2023-01-29T04:24:41.228Z,65.54
2023-01-29T04:27:25.844Z,64.92
2023-01-29T04:30:13.324Z,65.08
2023-01-29T04:32:53.708Z,64.80
2023-01-29T04:35:24.211Z,65.14
2023-01-29T04:37:57.112Z,65.53
2023-01-29T04:40:31.793Z,65.91
2023-01-29T04:43:17.169Z,65.73
2023-01-29T04:45:55.771Z,65.74
2023-01-29T04:48:25.676Z,66.43
2023-01-29T04:50:52.198Z,66.06
2023-01-29T04:53:23.780Z,65.33
2023-01-29T04:55:52.880Z,63.46
2023-01-29T04:58:22.317Z,64.32
2023-01-29T05:00:50.339Z,64.47
2023-01-29T05:03:17.112Z,64.83
2023-01-29T05:05:48.106Z,65.00
2023-01-29T05:08:17.159Z,64.51
2023-01-29T05:10:44.591Z,64.37
2023-01-29T05:13:13.312Z,64.08
2023-01-29T05:15:42.420Z,64.99
2023-01-29T05:18:09.114Z,65.74
2023-01-29T05:20:39.853Z,64.60
2023-01-29T05:23:26.514Z,64.21
2023-01-29T05:25:52.991Z,62.33
2023-01-29T05:28:19.415Z,65.05
2023-01-29T05:30:50.596Z,64.14
2023-01-29T05:33:19.083Z,63.76
2023-01-29T05:35:45.982Z,63.38
2023-01-29T05:38:12.728Z,63.99
2023-01-29T05:40:39.169Z,63.80
2023-01-29T05:43:05.844Z,64.12
2023-01-29T05:45:32.879Z,64.37
2023-01-29T05:48:00.044Z,64.28
2023-01-29T05:50:27.528Z,64.05
2023-01-29T05:53:00.823Z,64.62
2023-01-29T05:55:29.354Z,64.17
2023-01-29T05:57:56.049Z,64.58
2023-01-29T06:00:22.562Z,63.45
2023-01-29T06:02:49.259Z,63.69
2023-01-29T06:05:15.686Z,64.48
2023-01-29T06:07:45.229Z,63.92
2023-01-29T06:10:13.467Z,63.92
2023-01-29T06:12:40.260Z,64.94
2023-01-29T06:15:07.336Z,63.76
2023-01-29T06:17:33.739Z,64.04
2023-01-29T06:20:00.184Z,65.41
2023-01-29T06:22:26.592Z,64.80
2023-01-29T06:24:53.113Z,64.87
2023-01-29T06:27:19.508Z,65.05
2023-01-29T06:29:45.913Z,63.42
2023-01-29T06:32:12.375Z,64.54
2023-01-29T06:34:38.916Z,64.66
2023-01-29T06:37:05.444Z,64.24
2023-01-29T06:39:31.877Z,64.43
2023-01-29T06:41:58.323Z,66.41
2023-01-29T06:44:24.731Z,64.66
2023-01-29T06:46:51.157Z,63.96
2023-01-29T06:49:17.572Z,63.51
2023-01-29T06:51:44.010Z,63.67
2023-01-29T06:54:10.576Z,63.28
2023-01-29T06:56:37.027Z,63.67
2023-01-29T06:59:03.479Z,62.68
2023-01-29T07:01:36.184Z,64.32
2023-01-29T07:04:03.417Z,64.76
2023-01-29T07:06:30.576Z,64.65
2023-01-29T07:08:57.504Z,64.01
2023-01-29T07:11:23.925Z,64.22
2023-01-29T07:13:50.377Z,63.41
2023-01-29T07:16:17.059Z,63.72
2023-01-29T07:18:43.513Z,63.26
2023-01-29T07:21:09.944Z,63.10
2023-01-29T07:23:36.506Z,62.51
2023-01-29T07:26:06.460Z,63.83
2023-01-29T07:28:35.966Z,63.50
2023-01-29T07:31:02.451Z,62.77
2023-01-29T07:33:28.905Z,63.46
2023-01-29T07:35:55.376Z,62.53
2023-01-29T07:38:22.024Z,62.37
2023-01-29T07:40:48.944Z,62.84
2023-01-29T07:43:16.237Z,62.29
2023-01-29T07:45:42.714Z,63.12
2023-01-29T07:48:11.003Z,63.54
2023-01-29T07:50:37.911Z,63.26
2023-01-29T07:53:04.405Z,63.83
2023-01-29T07:55:31.332Z,63.98
2023-01-29T07:57:58.563Z,63.73
2023-01-29T08:00:25.132Z,65.80
2023-01-29T08:02:51.525Z,64.59
2023-01-29T08:05:17.981Z,64.10
2023-01-29T08:07:49.229Z,64.39
2023-01-29T08:10:20.725Z,64.72
2023-01-29T08:12:47.315Z,64.28
2023-01-29T08:15:13.729Z,64.71
2023-01-29T08:20:26.670Z,63.83
2023-01-29T08:23:03.075Z,64.43
2023-01-29T08:25:30.072Z,66.29
2023-01-29T08:27:57.788Z,65.25
2023-01-29T08:30:25.517Z,66.06
2023-01-29T08:32:52.036Z,64.11
2023-01-29T08:35:18.769Z,63.74
2023-01-29T08:37:52.116Z,63.51
2023-01-29T08:40:18.851Z,62.85
2023-01-29T08:42:45.429Z,62.81
2023-01-29T08:45:11.859Z,62.93
2023-01-29T08:47:38.299Z,62.93
2023-01-29T08:50:04.937Z,63.68
2023-01-29T08:52:31.650Z,63.89
2023-01-29T08:54:58.092Z,63.37
2023-01-29T08:57:24.515Z,62.33
2023-01-29T08:59:50.926Z,63.08
2023-01-29T09:02:17.389Z,63.23
2023-01-29T09:04:43.842Z,62.21
2023-01-29T09:07:10.305Z,63.48
2023-01-29T09:09:38.316Z,65.97
2023-01-29T09:12:04.877Z,65.85
2023-01-29T09:14:32.803Z,64.43
2023-01-29T09:16:59.280Z,63.42
2023-01-29T09:19:25.766Z,63.21
2023-01-29T09:21:52.126Z,63.91
2023-01-29T09:24:18.525Z,63.07
2023-01-29T09:26:44.947Z,62.50
2023-01-29T09:29:11.564Z,62.37
2023-01-29T09:31:38.074Z,62.27
2023-01-29T09:34:04.625Z,62.49
2023-01-29T09:36:31.138Z,62.93
2023-01-29T09:38:57.837Z,62.40
2023-01-29T09:41:24.191Z,61.89
2023-01-29T09:44:00.970Z,62.04
2023-01-29T09:46:33.323Z,61.40
2023-01-29T09:49:07.255Z,61.98
2023-01-29T09:51:37.697Z,62.07
2023-01-29T09:54:11.805Z,62.90
2023-01-29T09:56:38.363Z,62.19
2023-01-29T09:59:04.839Z,62.07
2023-01-29T10:01:34.407Z,63.64
2023-01-29T10:04:07.543Z,64.62
2023-01-29T10:06:52.914Z,64.29
2023-01-29T10:09:22.387Z,64.07
2023-01-29T10:12:00.692Z,63.17
2023-01-29T10:14:37.995Z,62.52
2023-01-29T10:17:04.439Z,63.03
2023-01-29T10:19:49.351Z,63.49
2023-01-29T10:22:28.123Z,63.43
2023-01-29T10:24:57.873Z,62.71
2023-01-29T10:27:29.433Z,62.83
2023-01-29T10:29:56.371Z,62.62
2023-01-29T10:32:25.382Z,62.44
2023-01-29T10:35:15.434Z,62.49
2023-01-29T10:37:42.614Z,62.30
2023-01-29T10:40:29.264Z,63.11
2023-01-29T10:43:02.297Z,64.08
2023-01-29T10:45:38.896Z,63.97
2023-01-29T10:48:20.830Z,63.74
2023-01-29T10:50:50.652Z,63.19
2023-01-29T10:53:32.189Z,63.07
2023-01-29T10:56:10.699Z,63.56
2023-01-29T10:58:51.950Z,63.29
2023-01-29T11:01:18.421Z,61.86
2023-01-29T11:03:44.989Z,61.88
2023-01-29T11:06:25.360Z,62.77
2023-01-29T11:08:57.611Z,61.87
2023-01-29T11:11:45.084Z,61.21
2023-01-29T11:14:16.642Z,61.95
2023-01-29T11:16:44.760Z,61.58
2023-01-29T11:19:11.617Z,62.02
2023-01-29T11:21:51.111Z,62.13
2023-01-29T11:24:18.689Z,62.25
2023-01-29T11:26:47.213Z,62.80
2023-01-29T11:29:33.947Z,62.52
2023-01-29T11:32:02.313Z,62.97
2023-01-29T11:34:29.234Z,62.32
2023-01-29T11:37:00.149Z,62.06
2023-01-29T11:39:27.865Z,62.14
2023-01-29T11:42:17.314Z,63.79
2023-01-29T11:44:43.743Z,63.45
2023-01-29T11:47:18.611Z,63.89
2023-01-29T11:49:46.720Z,63.51
2023-01-29T11:52:14.906Z,63.71
2023-01-29T11:54:54.557Z,63.30
2023-01-29T11:57:20.979Z,63.19
2023-01-29T11:59:50.340Z,61.36
2023-01-29T12:02:22.836Z,62.05
2023-01-29T12:04:49.999Z,62.38
2023-01-29T12:07:17.823Z,62.57
2023-01-29T12:09:52.501Z,61.82
2023-01-29T12:12:28.781Z,61.86
2023-01-29T12:15:16.169Z,62.90
2023-01-29T12:17:45.282Z,63.71
2023-01-29T12:20:15.271Z,62.26
2023-01-29T12:23:14.548Z,62.13
2023-01-29T12:25:56.589Z,62.06
2023-01-29T12:28:30.405Z,62.68
2023-01-29T12:30:59.847Z,62.26
2023-01-29T12:33:38.676Z,61.67
2023-01-29T12:36:11.120Z,61.94
2023-01-29T12:38:37.687Z,61.41
2023-01-29T12:41:07.597Z,62.05
2023-01-29T12:43:44.580Z,62.61
2023-01-29T12:46:18.727Z,61.39
2023-01-29T12:48:46.252Z,61.77
2023-01-29T12:51:18.652Z,61.70
2023-01-29T12:53:48.729Z,61.75
2023-01-29T12:56:20.631Z,62.14
2023-01-29T12:58:52.640Z,62.10
2023-01-29T13:01:37.089Z,62.53
2023-01-29T13:04:06.695Z,62.85
2023-01-29T13:06:41.428Z,62.14
2023-01-29T13:09:16.969Z,62.04
2023-01-29T13:11:48.703Z,62.33
2023-01-29T13:14:28.845Z,63.10
2023-01-29T13:17:01.221Z,63.21
2023-01-29T13:19:40.172Z,63.42
2023-01-29T13:22:13.913Z,64.90
2023-01-29T13:24:41.069Z,63.66
2023-01-29T13:27:12.599Z,63.91
2023-01-29T13:29:39.139Z,63.91
2023-01-29T13:32:05.756Z,63.28
2023-01-29T13:34:32.175Z,63.83
2023-01-29T13:37:00.794Z,63.82
2023-01-29T13:39:29.541Z,63.68
2023-01-29T13:41:56.914Z,63.78
2023-01-29T13:44:26.116Z,63.62
2023-01-29T13:47:07.553Z,63.76
2023-01-29T13:49:37.229Z,63.66
2023-01-29T13:52:14.984Z,63.90
2023-01-29T13:54:48.948Z,64.21
2023-01-29T13:57:34.232Z,64.23
2023-01-29T14:00:00.651Z,63.75
2023-01-29T14:02:28.489Z,63.32
2023-01-29T14:05:13.809Z,63.04
2023-01-29T14:07:43.342Z,62.93
2023-01-29T14:10:14.519Z,63.42
2023-01-29T14:12:41.502Z,62.21
2023-01-29T14:15:20.961Z,63.70
2023-01-29T14:18:14.539Z,63.95
2023-01-29T14:20:50.723Z,63.95
2023-01-29T14:23:32.544Z,63.83
2023-01-29T14:26:00.758Z,63.86
2023-01-29T14:28:29.728Z,62.97
2023-01-29T14:30:56.281Z,63.12
2023-01-29T14:33:33.927Z,63.60
2023-01-29T14:36:04.007Z,64.00
2023-01-29T14:38:31.848Z,64.18
2023-01-29T14:41:08.575Z,64.21
2023-01-29T14:43:35.015Z,63.84
2023-01-29T14:46:39.684Z,64.43
2023-01-29T14:49:07.618Z,64.20
2023-01-29T14:51:36.444Z,64.35
2023-01-29T14:54:06.034Z,64.18
2023-01-29T14:56:34.688Z,64.74
2023-01-29T14:59:19.887Z,64.99
2023-01-29T15:01:48.260Z,65.37
2023-01-29T15:04:24.789Z,63.98
2023-01-29T15:06:55.176Z,64.43
2023-01-29T15:09:41.796Z,64.32
2023-01-29T15:12:20.369Z,65.05
2023-01-29T15:14:56.887Z,64.61
2023-01-29T15:17:28.868Z,63.94
2023-01-29T15:19:56.708Z,64.29
2023-01-29T15:22:25.963Z,64.14
2023-01-29T15:25:03.298Z,62.96
2023-01-29T15:27:30.924Z,63.82
2023-01-29T15:29:59.120Z,63.37
2023-01-29T15:32:28.191Z,63.90
2023-01-29T15:34:55.817Z,63.34
2023-01-29T15:37:26.669Z,63.50
2023-01-29T15:39:53.251Z,62.87
2023-01-29T15:42:21.729Z,62.27
2023-01-29T15:44:48.224Z,63.26
2023-01-29T15:47:15.367Z,63.72
2023-01-29T15:49:42.169Z,63.23
2023-01-29T15:52:15.876Z,64.06
2023-01-29T15:54:43.339Z,63.89
2023-01-29T15:57:18.583Z,63.60
2023-01-29T15:59:45.567Z,63.21
2023-01-29T16:02:19.478Z,63.76
2023-01-29T16:04:46.281Z,63.09
2023-01-29T16:07:12.980Z,63.44
2023-01-29T16:09:39.564Z,64.76
2023-01-29T16:12:10.937Z,64.76
2023-01-29T16:14:37.907Z,65.24
2023-01-29T16:17:23.192Z,65.49
2023-01-29T16:20:00.316Z,64.93
2023-01-29T16:22:30.819Z,65.65
2023-01-29T16:24:58.496Z,65.99
2023-01-29T16:27:25.033Z,65.46
2023-01-29T16:29:51.779Z,65.63
2023-01-29T16:32:20.077Z,66.35
2023-01-29T16:34:52.048Z,66.73
2023-01-29T16:37:32.700Z,66.79
2023-01-29T16:39:59.349Z,65.99
2023-01-29T16:42:32.253Z,65.69
2023-01-29T16:45:02.934Z,66.93
2023-01-29T16:47:36.901Z,66.34
2023-01-29T16:50:22.244Z,66.30
2023-01-29T16:52:57.690Z,66.20
2023-01-29T16:55:25.494Z,65.78
2023-01-29T16:57:53.754Z,65.83
2023-01-29T17:00:23.015Z,66.34
2023-01-29T17:02:50.686Z,65.75
2023-01-29T17:05:22.300Z,65.59
2023-01-29T17:07:49.138Z,66.43
2023-01-29T17:10:17.882Z,65.09
2023-01-29T17:12:49.571Z,64.77
2023-01-29T17:15:33.115Z,65.52
2023-01-29T17:17:59.853Z,65.64
2023-01-29T17:20:27.003Z,64.21
2023-01-29T17:22:54.240Z,63.15
2023-01-29T17:25:21.902Z,62.83
2023-01-29T17:27:51.677Z,63.46
2023-01-29T17:30:20.595Z,62.89
2023-01-29T17:32:47.515Z,62.88
2023-01-29T17:35:15.047Z,63.37
2023-01-29T17:37:41.905Z,62.74
2023-01-29T17:40:18.093Z,62.60
2023-01-29T17:42:44.666Z,63.00
2023-01-29T17:45:11.111Z,63.06
2023-01-29T17:47:37.614Z,62.62
2023-01-29T17:50:14.525Z,62.30
2023-01-29T17:52:40.981Z,62.22
2023-01-29T17:55:08.470Z,62.41
2023-01-29T17:57:34.889Z,62.73
2023-01-29T18:00:01.311Z,62.26
2023-01-29T18:02:29.460Z,65.42
2023-01-29T18:04:56.492Z,65.85
2023-01-29T18:07:22.944Z,66.24
2023-01-29T18:09:49.330Z,66.62
2023-01-29T18:12:15.741Z,66.64
2023-01-29T18:14:42.134Z,66.87
2023-01-29T18:17:08.558Z,67.09
2023-01-29T18:19:34.966Z,66.92
2023-01-29T18:22:01.453Z,67.81
2023-01-29T18:24:27.973Z,67.21
2023-01-29T18:26:54.400Z,68.20
2023-01-29T18:29:20.927Z,67.07
2023-01-29T18:31:48.313Z,67.17
2023-01-29T18:34:14.755Z,67.14
2023-01-29T18:36:46.541Z,67.57
2023-01-29T18:39:13.601Z,67.05
2023-01-29T18:41:40.027Z,67.15
2023-01-29T18:44:06.548Z,66.57
2023-01-29T18:46:33.475Z,67.07
2023-01-29T18:48:59.896Z,66.83
2023-01-29T18:51:26.330Z,67.26
2023-01-29T18:53:52.836Z,67.41
2023-01-29T18:56:19.277Z,67.46
2023-01-29T18:58:52.245Z,67.36
2023-01-29T19:01:22.188Z,67.40
2023-01-29T19:03:48.733Z,68.13
2023-01-29T19:06:15.186Z,67.81
2023-01-29T19:08:42.878Z,67.97
2023-01-29T19:11:09.659Z,67.66
2023-01-29T19:13:36.657Z,68.00
2023-01-29T19:16:05.926Z,68.29
2023-01-29T19:18:32.677Z,69.04
2023-01-29T19:20:59.082Z,69.18
2023-01-29T19:23:25.496Z,69.56
2023-01-29T19:25:51.928Z,69.89
2023-01-29T19:28:18.565Z,69.15
2023-01-29T19:30:45.011Z,69.17
2023-01-29T19:33:11.517Z,69.58
2023-01-29T19:35:38.318Z,69.91
2023-01-29T19:38:04.802Z,69.94
2023-01-29T19:40:31.338Z,69.44
2023-01-29T19:42:58.394Z,69.52
2023-01-29T19:45:49.213Z,69.07
2023-01-29T19:48:14.468Z,68.63
2023-01-29T19:50:41.099Z,68.59
2023-01-29T19:53:07.509Z,69.14
2023-01-29T19:55:33.922Z,68.32
2023-01-29T19:58:00.576Z,68.67
2023-01-29T20:00:27.046Z,68.84
2023-01-29T20:02:53.466Z,68.47
2023-01-29T20:05:20.406Z,67.73
2023-01-29T20:07:47.211Z,67.37
2023-01-29T20:10:17.401Z,67.50
2023-01-29T20:12:44.959Z,66.02
2023-01-29T20:15:11.857Z,66.21
2023-01-29T20:17:38.255Z,65.71
2023-01-29T20:20:05.821Z,64.17
2023-01-29T20:22:32.701Z,63.42
2023-01-29T20:24:59.179Z,64.00
2023-01-29T20:27:25.746Z,64.53
2023-01-29T20:29:52.698Z,63.80
2023-01-29T20:32:19.359Z,64.40
2023-01-29T20:34:49.720Z,63.99
2023-01-29T20:37:16.159Z,64.19
2023-01-29T20:39:42.610Z,64.21
2023-01-29T20:42:09.052Z,63.54
2023-01-29T20:44:35.563Z,63.68
2023-01-29T20:47:02.650Z,63.83
2023-01-29T20:49:29.256Z,63.58
2023-01-29T20:51:55.685Z,63.32
2023-01-29T20:54:22.250Z,62.98
2023-01-29T20:56:48.968Z,63.36
2023-01-29T20:59:15.839Z,63.21
2023-01-29T21:01:43.198Z,62.88
2023-01-29T21:04:09.692Z,64.22
2023-01-29T21:06:36.132Z,66.29
2023-01-29T21:09:02.755Z,67.01
2023-01-29T21:11:29.199Z,66.46
2023-01-29T21:13:57.794Z,65.58
2023-01-29T21:16:26.166Z,65.79
2023-01-29T21:18:56.777Z,65.44
2023-01-29T21:21:23.368Z,65.81
2023-01-29T21:23:49.847Z,66.80
2023-01-29T21:26:16.316Z,67.85
2023-01-29T21:28:42.850Z,67.89
2023-01-29T21:31:10.168Z,67.48
2023-01-29T21:33:37.382Z,68.29
2023-01-29T21:36:04.589Z,67.73
2023-01-29T21:38:31.180Z,67.43
2023-01-29T21:41:01.726Z,67.05
2023-01-29T21:43:28.211Z,67.44
2023-01-29T21:45:58.589Z,67.95
2023-01-29T21:48:26.035Z,67.67
2023-01-29T21:50:52.692Z,68.08
2023-01-29T21:53:19.165Z,67.89
2023-01-29T21:55:45.876Z,69.21
2023-01-29T21:58:14.404Z,69.09
2023-01-29T22:00:41.127Z,69.19
2023-01-29T22:03:07.713Z,68.97
2023-01-29T22:05:34.097Z,68.48
2023-01-29T22:08:00.738Z,68.94
2023-01-29T22:10:28.506Z,68.09
2023-01-29T22:12:55.232Z,68.40
2023-01-29T22:15:23.714Z,67.56
2023-01-29T22:17:50.799Z,68.02
2023-01-29T22:20:17.979Z,68.87
2023-01-29T22:22:44.537Z,68.27
2023-01-29T22:25:10.995Z,68.34
2023-01-29T22:27:37.794Z,68.29
2023-01-29T22:30:04.844Z,66.39
2023-01-29T22:32:31.633Z,65.16
2023-01-29T22:34:58.329Z,65.40
2023-01-29T22:37:24.771Z,64.83
2023-01-29T22:39:51.213Z,64.24
2023-01-29T22:42:18.786Z,64.61
2023-01-29T22:44:45.568Z,63.86
2023-01-29T22:47:12.280Z,63.32
2023-01-29T22:49:38.841Z,63.81
2023-01-29T22:52:11.404Z,63.32
2023-01-29T22:54:38.780Z,63.65
2023-01-29T22:57:05.576Z,64.35
2023-01-29T22:59:32.413Z,63.60
2023-01-29T23:01:58.892Z,63.08
2023-01-29T23:04:25.417Z,63.04
2023-01-29T23:06:51.861Z,62.79
2023-01-29T23:09:18.304Z,63.23
2023-01-29T23:11:44.802Z,62.79
2023-01-29T23:14:11.226Z,63.37
2023-01-29T23:16:37.733Z,63.14
2023-01-29T23:19:04.312Z,64.80
2023-01-29T23:21:30.786Z,64.68
2023-01-29T23:23:59.263Z,65.82
2023-01-29T23:26:44.772Z,65.42
2023-01-29T23:29:11.646Z,66.54
2023-01-29T23:31:38.350Z,66.42
2023-01-29T23:34:04.902Z,67.60
2023-01-29T23:36:31.335Z,67.24
2023-01-29T23:38:57.798Z,67.90
2023-01-29T23:41:24.251Z,68.65
2023-01-29T23:43:52.625Z,68.45
2023-01-29T23:46:19.188Z,68.17
2023-01-29T23:48:45.598Z,68.55
2023-01-29T23:51:12.732Z,68.49
2023-01-29T23:53:39.201Z,68.74
2023-01-29T23:56:05.909Z,67.04
2023-01-29T23:58:33.291Z,68.04
